createdAt,value
2018-05-15T00:01:05.000Z,98620.41
2018-05-15T00:03:34.588Z,98619.48
2018-05-15T00:06:03.493Z,98616.91
2018-05-15T00:08:33.702Z,98612.93
2018-05-15T00:11:02.016Z,98612.42
2018-05-15T00:13:30.605Z,98615.70
2018-05-15T00:16:00.442Z,98621.38
2018-05-15T00:18:28.800Z,98615.45
2018-05-15T00:20:57.199Z,98618.03
2018-05-15T00:23:26.487Z,98618.23
2018-05-15T00:25:55.224Z,98610.36
2018-05-15T00:28:23.616Z,98607.11
2018-05-15T00:30:51.955Z,98612.86
2018-05-15T00:33:22.342Z,98606.00
2018-05-15T00:35:52.381Z,98605.05
2018-05-15T00:38:20.725Z,98600.75
2018-05-15T00:40:49.846Z,98598.27
2018-05-15T00:43:19.151Z,98601.40
2018-05-15T00:45:49.061Z,98583.06
2018-05-15T00:48:18.742Z,98591.33
2018-05-15T00:50:47.564Z,98589.00
2018-05-15T00:53:16.733Z,98583.20
2018-05-15T00:55:45.060Z,98587.97
2018-05-15T00:58:15.319Z,98588.02
2018-05-15T01:00:44.528Z,98585.35
2018-05-15T01:03:13.200Z,98584.94
2018-05-15T01:05:41.596Z,98591.20
2018-05-15T01:08:10.841Z,98589.16
2018-05-15T01:10:39.184Z,98587.56
2018-05-15T01:13:07.549Z,98585.69
2018-05-15T01:15:36.550Z,98586.64
2018-05-15T01:18:05.141Z,98586.58
2018-05-15T01:20:34.378Z,98593.11
2018-05-15T01:23:03.012Z,98580.69
2018-05-15T01:25:32.181Z,98577.52
2018-05-15T01:28:01.506Z,98581.66
2018-05-15T01:30:29.858Z,98583.50
2018-05-15T01:32:58.497Z,98577.67
2018-05-15T01:35:27.735Z,98572.72
2018-05-15T01:37:56.139Z,98573.75
2018-05-15T01:40:25.394Z,98572.02
2018-05-15T01:42:55.514Z,98578.20
2018-05-15T01:45:23.864Z,98578.02
2018-05-15T01:47:52.298Z,98578.73
2018-05-15T01:50:21.088Z,98582.20
2018-05-15T01:52:49.441Z,98585.64
2018-05-15T01:55:17.834Z,98583.43
2018-05-15T01:57:46.252Z,98583.61
2018-05-15T02:00:16.142Z,98578.73
2018-05-15T02:02:46.423Z,98577.13
2018-05-15T02:05:15.525Z,98590.06
2018-05-15T02:07:43.856Z,98587.24
2018-05-15T02:10:13.008Z,98585.10
2018-05-15T02:12:41.385Z,98580.07
2018-05-15T02:15:09.739Z,98584.08
2018-05-15T02:17:39.034Z,98591.98
2018-05-15T02:20:08.247Z,98589.69
2018-05-15T02:22:37.708Z,98591.55
2018-05-15T02:25:06.074Z,98594.03
2018-05-15T02:27:35.186Z,98593.77
2018-05-15T02:30:05.463Z,98592.92
2018-05-15T02:32:34.538Z,98595.42
2018-05-15T02:35:03.837Z,98589.38
2018-05-15T02:37:32.625Z,98597.13
2018-05-15T02:40:03.233Z,98589.49
2018-05-15T02:42:32.999Z,98591.84
2018-05-15T02:45:01.351Z,98585.66
2018-05-15T02:47:29.724Z,98586.75
2018-05-15T02:49:58.469Z,98587.72
2018-05-15T02:52:28.542Z,98585.47
2018-05-15T02:54:57.033Z,98588.66
2018-05-15T02:57:26.785Z,98587.64
2018-05-15T02:59:55.694Z,98591.95
2018-05-15T03:02:24.132Z,98588.91
2018-05-15T03:04:53.388Z,98598.08
2018-05-15T03:07:21.753Z,98591.74
2018-05-15T03:09:51.034Z,98590.48
2018-05-15T03:12:19.716Z,98582.84
2018-05-15T03:14:50.167Z,98585.37
2018-05-15T03:17:20.306Z,98583.19
2018-05-15T03:19:49.606Z,98589.67
2018-05-15T03:22:18.899Z,98591.70
2018-05-15T03:24:47.682Z,98596.77
2018-05-15T03:27:17.774Z,98599.09
2018-05-15T03:29:47.118Z,98597.14
2018-05-15T03:32:16.430Z,98598.97
2018-05-15T03:34:44.816Z,98606.70
2018-05-15T03:37:13.231Z,98610.77
2018-05-15T03:39:42.531Z,98605.54
2018-05-15T03:42:11.395Z,98607.77
2018-05-15T03:44:39.760Z,98614.03
2018-05-15T03:47:08.098Z,98622.92
2018-05-15T03:49:37.545Z,98623.16
2018-05-15T03:52:05.878Z,98628.34
2018-05-15T03:54:34.371Z,98631.70
2018-05-15T03:57:03.817Z,98635.58
2018-05-15T03:59:32.178Z,98640.62
2018-05-15T04:02:15.217Z,98642.47
2018-05-15T04:04:56.732Z,98651.52
2018-05-15T04:07:37.733Z,98658.59
2018-05-15T04:10:06.838Z,98661.28
2018-05-15T04:12:35.177Z,98662.95
2018-05-15T04:15:04.519Z,98670.25
2018-05-15T04:17:32.944Z,98671.84
2018-05-15T04:20:01.292Z,98668.57
2018-05-15T04:22:30.550Z,98677.67
2018-05-15T04:24:58.917Z,98675.61
2018-05-15T04:27:27.287Z,98687.45
2018-05-15T04:29:55.895Z,98689.42
2018-05-15T04:32:24.276Z,98693.99
2018-05-15T04:34:54.376Z,98697.65
2018-05-15T04:37:22.724Z,98692.87
2018-05-15T04:39:51.866Z,98692.87
2018-05-15T04:42:20.235Z,98689.36
2018-05-15T04:44:49.525Z,98692.52
2018-05-15T04:47:18.391Z,98691.34
2018-05-15T04:49:49.275Z,98686.14
2018-05-15T04:52:18.120Z,98697.23
2018-05-15T04:54:48.812Z,98700.44
2018-05-15T04:57:18.569Z,98699.05
2018-05-15T04:59:47.727Z,98704.48
2018-05-15T05:02:16.141Z,98707.56
2018-05-15T05:04:44.497Z,98710.95
2018-05-15T05:07:12.826Z,98715.38
2018-05-15T05:09:42.067Z,98713.91
2018-05-15T05:12:12.040Z,98721.73
2018-05-15T05:14:41.732Z,98728.73
2018-05-15T05:17:10.192Z,98733.67
2018-05-15T05:19:39.280Z,98736.36
2018-05-15T05:22:07.641Z,98737.02
2018-05-15T05:24:35.997Z,98735.12
2018-05-15T05:27:05.317Z,98734.78
2018-05-15T05:29:34.464Z,98744.11
2018-05-15T05:32:04.630Z,98743.22
2018-05-15T05:34:34.157Z,98742.78
2018-05-15T05:37:03.601Z,98748.54
2018-05-15T05:39:32.676Z,98746.44
2018-05-15T05:42:03.126Z,98739.19
2018-05-15T05:44:31.532Z,98753.95
2018-05-15T05:47:01.333Z,98758.33
2018-05-15T05:49:30.621Z,98763.22
2018-05-15T05:51:59.295Z,98770.45
2018-05-15T05:54:28.452Z,98773.08
2018-05-15T05:56:57.713Z,98776.48
2018-05-15T05:59:26.804Z,98778.98
2018-05-15T06:01:56.197Z,98786.05
2018-05-15T06:04:26.105Z,98789.73
2018-05-15T06:06:55.446Z,98789.06
2018-05-15T06:09:25.734Z,98790.70
2018-05-15T06:11:55.568Z,98793.15
2018-05-15T06:14:24.663Z,98791.39
2018-05-15T06:16:53.935Z,98795.25
2018-05-15T06:19:25.710Z,98795.30
2018-05-15T06:21:55.797Z,98805.28
2018-05-15T06:24:25.544Z,98802.66
2018-05-15T06:26:53.963Z,98800.68
2018-05-15T06:29:24.337Z,98814.96
2018-05-15T06:31:53.317Z,98812.91
2018-05-15T06:34:23.349Z,98820.16
2018-05-15T06:36:52.070Z,98813.52
2018-05-15T06:39:21.665Z,98806.07
2018-05-15T06:41:52.084Z,98808.54
2018-05-15T06:44:20.813Z,98812.77
2018-05-15T06:46:53.364Z,98808.83
2018-05-15T06:49:26.624Z,98807.22
2018-05-15T06:51:56.037Z,98812.72
2018-05-15T06:54:24.712Z,98818.30
2018-05-15T06:56:53.899Z,98814.05
2018-05-15T06:59:22.501Z,98810.54
2018-05-15T07:01:52.740Z,98811.33
2018-05-15T07:04:21.134Z,98806.21
2018-05-15T07:06:49.779Z,98806.84
2018-05-15T07:09:19.038Z,98809.69
2018-05-15T07:11:48.948Z,98815.39
2018-05-15T07:14:18.296Z,98806.86
2018-05-15T07:16:47.446Z,98817.42
2018-05-15T07:19:19.199Z,98818.16
2018-05-15T07:21:50.398Z,98823.64
2018-05-15T07:24:19.952Z,98823.50
2018-05-15T07:26:48.857Z,98821.16
2018-05-15T07:29:18.506Z,98826.52
2018-05-15T07:31:46.877Z,98820.84
2018-05-15T07:34:19.446Z,98821.94
2018-05-15T07:36:50.320Z,98826.42
2018-05-15T07:39:20.842Z,98831.38
2018-05-15T07:41:49.268Z,98832.98
2018-05-15T07:44:18.817Z,98832.36
2018-05-15T07:46:48.615Z,98826.48
2018-05-15T07:49:16.990Z,98830.94
2018-05-15T07:51:45.439Z,98826.45
2018-05-15T07:54:14.685Z,98822.63
2018-05-15T07:56:43.848Z,98815.77
2018-05-15T07:59:14.524Z,98821.58
2018-05-15T08:01:45.900Z,98826.63
2018-05-15T08:04:15.110Z,98823.85
2018-05-15T08:06:44.515Z,98816.95
2018-05-15T08:09:13.212Z,98828.59
2018-05-15T08:11:42.819Z,98824.80
2018-05-15T08:14:12.588Z,98825.48
2018-05-15T08:16:40.981Z,98829.78
2018-05-15T08:19:10.036Z,98833.42
2018-05-15T08:21:39.420Z,98829.23
2018-05-15T08:24:08.812Z,98828.02
2018-05-15T08:26:37.217Z,98824.18
2018-05-15T08:29:06.490Z,98826.51
2018-05-15T08:31:35.789Z,98840.11
2018-05-15T08:34:04.917Z,98838.95
2018-05-15T08:36:33.316Z,98841.73
2018-05-15T08:39:01.668Z,98842.69
2018-05-15T08:41:32.010Z,98849.21
2018-05-15T08:44:01.829Z,98852.83
2018-05-15T08:46:30.678Z,98852.41
2018-05-15T08:48:59.025Z,98842.80
2018-05-15T08:51:27.907Z,98853.76
2018-05-15T08:53:57.140Z,98845.68
2018-05-15T08:56:27.045Z,98852.75
2018-05-15T08:58:56.796Z,98847.71
2018-05-15T09:01:25.159Z,98852.58
2018-05-15T09:03:54.414Z,98862.38
2018-05-15T09:06:23.074Z,98853.45
2018-05-15T09:08:51.721Z,98858.82
2018-05-15T09:11:20.940Z,98863.97
2018-05-15T09:13:50.441Z,98858.20
2018-05-15T09:16:20.208Z,98853.70
2018-05-15T09:18:49.817Z,98863.91
2018-05-15T09:21:18.258Z,98862.32
2018-05-15T09:23:46.867Z,98855.95
2018-05-15T09:26:15.261Z,98867.23
2018-05-15T09:28:44.733Z,98864.48
2018-05-15T09:31:13.822Z,98864.47
2018-05-15T09:33:43.084Z,98865.50
2018-05-15T09:36:11.706Z,98863.05
2018-05-15T09:38:40.032Z,98864.63
2018-05-15T09:41:08.832Z,98855.47
2018-05-15T09:43:54.983Z,98849.99
2018-05-15T09:46:23.969Z,98850.94
2018-05-15T09:48:53.132Z,98848.48
2018-05-15T09:51:21.960Z,98845.33
2018-05-15T09:53:51.266Z,98847.21
2018-05-15T09:56:19.637Z,98857.08
2018-05-15T09:58:48.010Z,98860.28
2018-05-15T10:01:17.166Z,98847.14
2018-05-15T10:03:46.485Z,98858.08
2018-05-15T10:06:15.741Z,98857.23
2018-05-15T10:08:45.446Z,98856.74
2018-05-15T10:11:15.325Z,98853.27
2018-05-15T10:13:43.801Z,98855.66
2018-05-15T10:16:12.159Z,98850.81
2018-05-15T10:18:41.927Z,98845.95
2018-05-15T10:21:10.322Z,98845.77
2018-05-15T10:23:39.414Z,98838.37
2018-05-15T10:26:08.006Z,98837.32
2018-05-15T10:28:36.731Z,98835.37
2018-05-15T10:31:05.080Z,98840.08
2018-05-15T10:33:33.608Z,98831.77
2018-05-15T10:36:02.214Z,98824.83
2018-05-15T10:38:31.298Z,98819.33
2018-05-15T10:40:59.651Z,98823.18
2018-05-15T10:43:28.015Z,98813.48
2018-05-15T10:45:57.500Z,98816.20
2018-05-15T10:48:25.872Z,98819.73
2018-05-15T10:50:54.229Z,98815.72
2018-05-15T10:53:23.064Z,98818.03
2018-05-15T10:55:51.520Z,98819.66
2018-05-15T10:58:20.736Z,98816.33
2018-05-15T11:00:49.474Z,98813.19
2018-05-15T11:03:19.314Z,98807.98
2018-05-15T11:05:48.531Z,98813.27
2018-05-15T11:08:17.777Z,98810.77
2018-05-15T11:10:46.489Z,98806.16
2018-05-15T11:13:16.563Z,98807.94
2018-05-15T11:15:49.162Z,98805.75
2018-05-15T11:18:31.096Z,98802.09
2018-05-15T11:21:12.806Z,98797.05
2018-05-15T11:23:54.320Z,98797.05
2018-05-15T11:26:23.803Z,98795.30
2018-05-15T11:28:54.041Z,98795.80
2018-05-15T11:31:22.786Z,98802.91
2018-05-15T11:33:52.184Z,98802.80
2018-05-15T11:36:21.279Z,98795.70
2018-05-15T11:38:49.622Z,98794.44
2018-05-15T11:41:18.774Z,98808.82
2018-05-15T11:43:47.323Z,98795.73
2018-05-15T11:46:16.601Z,98796.30
2018-05-15T11:48:46.135Z,98794.19
2018-05-15T11:51:14.528Z,98790.17
2018-05-15T11:53:42.677Z,98791.22
2018-05-15T11:56:11.029Z,98796.11
2018-05-15T11:58:39.357Z,98784.34
2018-05-15T12:01:07.744Z,98795.94
2018-05-15T12:03:36.827Z,98783.59
2018-05-15T12:06:05.192Z,98790.31
2018-05-15T12:08:34.444Z,98787.27
2018-05-15T12:11:02.807Z,98777.12
2018-05-15T12:13:31.165Z,98775.72
2018-05-15T12:15:59.552Z,98781.96
2018-05-15T12:18:28.099Z,98780.14
2018-05-15T12:20:57.001Z,98773.37
2018-05-15T12:23:26.693Z,98778.72
2018-05-15T12:25:55.049Z,98779.56
2018-05-15T12:28:23.386Z,98776.36
2018-05-15T12:30:51.751Z,98771.39
2018-05-15T12:33:21.081Z,98775.45
2018-05-15T12:35:49.519Z,98780.89
2018-05-15T12:38:21.861Z,98776.21
2018-05-15T12:40:50.188Z,98783.73
2018-05-15T12:43:18.948Z,98786.38
2018-05-15T12:45:47.923Z,98785.20
2018-05-15T12:48:16.352Z,98789.66
2018-05-15T12:50:45.482Z,98784.30
2018-05-15T12:53:13.885Z,98795.70
2018-05-15T12:55:42.217Z,98789.92
2018-05-15T12:58:10.593Z,98790.38
2018-05-15T13:00:38.945Z,98784.75
2018-05-15T13:03:07.322Z,98793.64
2018-05-15T13:05:36.049Z,98785.44
2018-05-15T13:08:04.637Z,98797.21
2018-05-15T13:10:34.282Z,98793.09
2018-05-15T13:13:02.675Z,98789.25
2018-05-15T13:15:31.021Z,98788.77
2018-05-15T13:18:00.116Z,98793.52
2018-05-15T13:20:28.496Z,98793.80
2018-05-15T13:22:57.772Z,98785.78
2018-05-15T13:25:26.103Z,98798.70
2018-05-15T13:27:54.514Z,98788.97
2018-05-15T13:30:23.135Z,98787.61
2018-05-15T13:32:51.530Z,98781.86
2018-05-15T13:35:21.616Z,98784.19
2018-05-15T13:37:53.044Z,98770.54
2018-05-15T13:40:21.407Z,98773.66
2018-05-15T13:42:49.738Z,98764.77
2018-05-15T13:45:18.154Z,98763.58
2018-05-15T13:47:46.486Z,98760.27
2018-05-15T13:50:19.693Z,98756.09
2018-05-15T13:52:48.958Z,98755.55
2018-05-15T13:55:17.320Z,98746.81
2018-05-15T13:57:46.514Z,98744.16
2018-05-15T14:00:15.200Z,98742.40
2018-05-15T14:02:43.527Z,98743.23
2018-05-15T14:05:11.895Z,98736.41
2018-05-15T14:07:40.390Z,98733.21
2018-05-15T14:10:09.745Z,98730.00
2018-05-15T14:12:38.699Z,98725.58
2018-05-15T14:15:07.061Z,98719.42
2018-05-15T14:17:35.405Z,98710.83
2018-05-15T14:20:03.763Z,98720.30
2018-05-15T14:22:32.105Z,98709.05
2018-05-15T14:25:00.462Z,98708.52
2018-05-15T14:27:28.787Z,98703.82
2018-05-15T14:29:57.974Z,98703.71
2018-05-15T14:32:26.301Z,98694.94
2018-05-15T14:34:54.672Z,98704.21
2018-05-15T14:37:23.633Z,98705.09
2018-05-15T14:39:51.997Z,98695.13
2018-05-15T14:42:31.980Z,98697.26
2018-05-15T14:45:00.333Z,98698.88
2018-05-15T14:47:30.440Z,98699.19
2018-05-15T14:49:58.842Z,98702.84
2018-05-15T14:52:28.022Z,98707.16
2018-05-15T14:54:56.368Z,98702.22
2018-05-15T14:57:25.645Z,98699.09
2018-05-15T14:59:54.840Z,98701.17
2018-05-15T15:02:23.172Z,98702.55
2018-05-15T15:04:52.465Z,98699.29
2018-05-15T15:07:20.822Z,98695.06
2018-05-15T15:09:49.197Z,98691.48
2018-05-15T15:12:17.553Z,98690.26
2018-05-15T15:14:45.884Z,98686.98
2018-05-15T15:17:14.260Z,98693.95
2018-05-15T15:19:43.873Z,98690.48
2018-05-15T15:22:12.846Z,98678.86
2018-05-15T15:24:41.177Z,98674.51
2018-05-15T15:27:11.280Z,98673.10
2018-05-15T15:29:39.653Z,98675.70
2018-05-15T15:32:08.348Z,98671.77
2018-05-15T15:34:37.290Z,98671.56
2018-05-15T15:37:05.677Z,98668.14
2018-05-15T15:39:34.246Z,98669.09
2018-05-15T15:42:02.595Z,98672.58
2018-05-15T15:44:30.969Z,98672.69
2018-05-15T15:47:00.254Z,98669.95
2018-05-15T15:49:28.588Z,98672.03
2018-05-15T15:51:58.242Z,98667.77
2018-05-15T15:54:27.407Z,98666.22
2018-05-15T15:56:56.366Z,98667.66
2018-05-15T15:59:24.768Z,98663.48
2018-05-15T16:01:53.171Z,98661.50
2018-05-15T16:04:21.779Z,98657.31
2018-05-15T16:06:51.477Z,98658.70
2018-05-15T16:09:22.112Z,98658.78
2018-05-15T16:11:56.653Z,98659.48
2018-05-15T16:14:26.706Z,98663.53
2018-05-15T16:16:55.187Z,98661.34
2018-05-15T16:19:23.888Z,98661.80
2018-05-15T16:21:52.285Z,98661.72
2018-05-15T16:24:20.621Z,98662.68
2018-05-15T16:26:49.006Z,98662.53
2018-05-15T16:29:17.328Z,98658.45
2018-05-15T16:31:46.437Z,98660.73
2018-05-15T16:34:14.771Z,98663.08
2018-05-15T16:36:44.368Z,98663.75
2018-05-15T16:39:12.762Z,98669.39
2018-05-15T16:41:41.979Z,98672.16
2018-05-15T16:44:10.808Z,98675.65
2018-05-15T16:46:39.226Z,98678.10
2018-05-15T16:49:08.366Z,98675.91
2018-05-15T16:51:37.627Z,98675.34
2018-05-15T16:54:05.999Z,98679.92
2018-05-15T16:56:34.367Z,98679.09
2018-05-15T16:59:02.734Z,98679.98
2018-05-15T17:01:32.833Z,98676.80
2018-05-15T17:04:02.965Z,98677.89
2018-05-15T17:06:31.289Z,98682.52
2018-05-15T17:08:59.943Z,98680.34
2018-05-15T17:11:28.324Z,98697.05
2018-05-15T17:13:57.580Z,98702.59
2018-05-15T17:16:26.037Z,98724.11
2018-05-15T17:18:55.226Z,98739.75
2018-05-15T17:21:23.557Z,98731.77
2018-05-15T17:23:51.921Z,98739.03
2018-05-15T17:26:20.249Z,98730.16
2018-05-15T17:28:49.443Z,98731.13
2018-05-15T17:31:18.134Z,98728.13
2018-05-15T17:33:46.633Z,98738.42
2018-05-15T17:36:14.972Z,98745.46
2018-05-15T17:38:43.363Z,98744.58
2018-05-15T17:41:11.690Z,98745.63
2018-05-15T17:43:40.862Z,98752.47
2018-05-15T17:46:09.185Z,98747.11
2018-05-15T17:48:37.724Z,98743.77
2018-05-15T17:51:06.914Z,98739.83
2018-05-15T17:53:35.384Z,98735.06
2018-05-15T17:56:03.744Z,98734.78
2018-05-15T17:58:32.887Z,98737.75
2018-05-15T18:01:01.234Z,98736.53
2018-05-15T18:03:30.367Z,98748.09
2018-05-15T18:05:58.735Z,98750.20
2018-05-15T18:08:27.161Z,98744.84
2018-05-15T18:10:56.288Z,98743.02
2018-05-15T18:13:24.641Z,98743.84
2018-05-15T18:15:52.977Z,98746.67
2018-05-15T18:18:21.329Z,98750.94
2018-05-15T18:20:49.657Z,98751.37
2018-05-15T18:23:18.927Z,98750.62
2018-05-15T18:25:47.255Z,98738.98
2018-05-15T18:28:17.012Z,98729.22
2018-05-15T18:30:45.350Z,98738.30
2018-05-15T18:33:14.630Z,98734.40
2018-05-15T18:35:43.568Z,98735.97
2018-05-15T18:38:12.694Z,98728.66
2018-05-15T18:40:41.017Z,98722.83
2018-05-15T18:43:10.721Z,98727.02
2018-05-15T18:45:39.433Z,98727.81
2018-05-15T18:48:07.806Z,98724.54
2018-05-15T18:50:36.145Z,98724.21
2018-05-15T18:53:05.052Z,98728.55
2018-05-15T18:55:34.054Z,98729.71
2018-05-15T18:58:02.451Z,98729.63
2018-05-15T19:00:30.794Z,98727.52
2018-05-15T19:03:00.457Z,98727.71
2018-05-15T19:05:28.828Z,98729.50
2018-05-15T19:07:58.034Z,98730.83
2018-05-15T19:10:26.368Z,98731.66
2018-05-15T19:12:54.987Z,98729.41
2018-05-15T19:15:24.094Z,98729.95
2018-05-15T19:17:52.893Z,98735.55
2018-05-15T19:20:22.136Z,98736.09
2018-05-15T19:22:50.487Z,98731.70
2018-05-15T19:25:18.825Z,98736.53
2018-05-15T19:27:47.214Z,98733.25
2018-05-15T19:30:15.585Z,98733.63
2018-05-15T19:32:44.984Z,98735.65
2018-05-15T19:35:19.205Z,98736.13
2018-05-15T19:37:47.949Z,98735.03
2018-05-15T19:40:17.292Z,98739.84
2018-05-15T19:42:46.441Z,98734.97
2018-05-15T19:45:16.302Z,98746.54
2018-05-15T19:47:44.910Z,98749.64
2018-05-15T19:50:13.285Z,98757.27
2018-05-15T19:52:41.651Z,98751.95
2018-05-15T19:55:10.048Z,98750.13
2018-05-15T19:57:38.382Z,98745.77
2018-05-15T20:00:06.737Z,98742.11
2018-05-15T20:02:35.150Z,98733.52
2018-05-15T20:05:04.885Z,98735.81
2018-05-15T20:07:33.511Z,98740.62
2018-05-15T20:10:01.902Z,98739.77
2018-05-15T20:12:30.273Z,98736.39
2018-05-15T20:14:59.582Z,98731.97
2018-05-15T20:17:27.916Z,98738.04
2018-05-15T20:19:56.669Z,98731.22
2018-05-15T20:22:24.981Z,98735.02
2018-05-15T20:24:53.343Z,98734.59
2018-05-15T20:27:21.721Z,98743.28
2018-05-15T20:29:51.311Z,98756.90
2018-05-15T20:32:19.894Z,98774.98
2018-05-15T20:34:48.274Z,98779.41
2018-05-15T20:37:16.626Z,98784.43
2018-05-15T20:39:45.149Z,98794.11
2018-05-15T20:42:13.510Z,98810.89
2018-05-15T20:44:42.069Z,98823.70
2018-05-15T20:47:10.835Z,98829.59
2018-05-15T20:49:39.234Z,98835.01
2018-05-15T20:52:08.356Z,98846.92
2018-05-15T20:54:36.653Z,98864.36
2018-05-15T20:57:05.848Z,98872.92
2018-05-15T20:59:34.231Z,98874.75
2018-05-15T21:02:02.617Z,98876.45
2018-05-15T21:04:30.965Z,98869.69
2018-05-15T21:06:59.288Z,98869.23
2018-05-15T21:09:27.644Z,98868.13
2018-05-15T21:11:56.774Z,98855.64
2018-05-15T21:14:25.928Z,98848.44
2018-05-15T21:16:54.332Z,98841.40
2018-05-15T21:19:22.695Z,98830.06
2018-05-15T21:21:51.351Z,98824.16
2018-05-15T21:24:19.636Z,98815.81
2018-05-15T21:26:47.972Z,98809.95
2018-05-15T21:29:16.369Z,98799.76
2018-05-15T21:31:44.701Z,98793.72
2018-05-15T21:34:13.833Z,98786.35
2018-05-15T21:36:42.761Z,98773.55
2018-05-15T21:39:11.115Z,98764.11
2018-05-15T21:41:39.443Z,98752.71
2018-05-15T21:44:07.830Z,98764.87
2018-05-15T21:46:36.162Z,98779.00
2018-05-15T21:49:04.850Z,98792.23
2018-05-15T21:51:34.091Z,98790.08
2018-05-15T21:54:02.553Z,98796.96
2018-05-15T21:56:30.882Z,98803.61
2018-05-15T21:58:59.248Z,98806.28
2018-05-15T22:01:27.979Z,98804.91
2018-05-15T22:03:56.356Z,98802.99
2018-05-15T22:06:24.915Z,98787.51
2018-05-15T22:08:55.022Z,98787.13
2018-05-15T22:11:22.822Z,98784.94
2018-05-15T22:14:02.565Z,98785.98
2018-05-15T22:16:49.857Z,98787.27
2018-05-15T22:19:35.982Z,98776.34
2018-05-15T22:22:14.628Z,98773.91
2018-05-15T22:24:42.707Z,98779.53
2018-05-15T22:27:11.041Z,98777.54
2018-05-15T22:29:39.385Z,98779.66
2018-05-15T22:32:09.070Z,98784.60
2018-05-15T22:34:37.437Z,98781.92
2018-05-15T22:37:06.365Z,98784.52
2018-05-15T22:39:35.428Z,98793.81
2018-05-15T22:42:04.564Z,98795.91
2018-05-15T22:44:33.844Z,98790.84
2018-05-15T22:47:02.182Z,98786.85
2018-05-15T22:49:31.139Z,98792.90
2018-05-15T22:51:59.486Z,98806.12
2018-05-15T22:54:27.868Z,98803.30
2018-05-15T22:56:56.230Z,98799.13
2018-05-15T22:59:24.767Z,98801.98
2018-05-15T23:01:53.917Z,98784.77
2018-05-15T23:04:22.644Z,98782.22
2018-05-15T23:06:50.968Z,98787.41
2018-05-15T23:09:19.407Z,98790.61
2018-05-15T23:11:47.753Z,98788.50
2018-05-15T23:14:16.427Z,98790.70
2018-05-15T23:16:45.672Z,98794.46
2018-05-15T23:19:15.234Z,98796.63
2018-05-15T23:21:44.800Z,98791.05
2018-05-15T23:24:13.232Z,98786.35
2018-05-15T23:26:41.569Z,98790.67
2018-05-15T23:29:09.974Z,98792.06
2018-05-15T23:31:38.307Z,98792.78
2018-05-15T23:34:07.509Z,98791.50
2018-05-15T23:36:36.717Z,98791.70
2018-05-15T23:39:06.641Z,98791.09
2018-05-15T23:41:34.977Z,98780.14
2018-05-15T23:44:03.821Z,98767.93
2018-05-15T23:46:32.254Z,98782.47
2018-05-15T23:49:01.318Z,98779.05
2018-05-15T23:51:29.676Z,98780.65
2018-05-15T23:53:58.011Z,98776.33
2018-05-15T23:56:27.174Z,98781.84
2018-05-15T23:58:55.498Z,98786.04
